Current Weather

Rockford Greater Rockford Ap

Rockford Greater Rockford Ap, Illinois (KRFD)

Report from: Monday, May 23, 2022 2:54 AM CDT
Current time: Monday, May 23, 2022 4:03 AM CDT

Nearby weather
Weather history
Weather forecast

Temperature5.6°C (42.1°F)
Wind chill4.6°C (40.2°F)
Dew point2.2°C (36.0°F)
Winds 3 kts (1.5 m/s, 3.5 mph) Northeast (40°)
Visibility10 mi. (16.1 km)
Clouds Sky clear
Altimeter30.38 in.Hg (1029 mB)
Relative humidity79 %
Density altitude-1,554 ft. (-474 m)
Sea-level pressure102.9 kPa (1029 mB, 30.38 in.Hg)
Remarks Automated weather observing station with precipitation discriminator
Flight conditions Visual Meteorological Conditions
Raw dataKRFD 230754Z 04003KT 10SM CLR 06/02 A3038 RMK AO2 SLP288 T00560022
An error has occurred. This application may no longer respond until reloaded. Reload 🗙